Pagina principale
METAR-TAF:

METAR-TAF

Aeroporti :

Gioia del Colle, Italia

Aeroporto di Gioia del Colle

latitudine: 40-46N, longitudine: 016-56E, altezza: 345 m

Osservazione

Il bollettino è stato emesso 39 minuti fa, alle 08:55 UTC
Vento 7 kt da nord/nord-ovest
Temperature 23°C
Umidità 38%
Pressione 1018 hPa
Visibilità 10 km o più
Poco nuvoloso ad un'altezza di 3500 ft

METAR: LIBV 290855Z 34007KT 9999 FEW035 23/08 Q1018 RMK FEW VIS MIN 9999 WIND THR32 35007KT WIND THR14 35008KT BLU

Ora: 11:34 (09:34 UTC)

Previsione

Il bollettino è stato emesso 1 ora e 34 minuti fa, alle 08:00 UTC
Previsione valida dal 29 alle 09 UTC al 29 alle 18 UTC
Vento 10 kt da nord
Visibilità 10 km o più
nessuna nube inferiore a 1500 m e nessun cumulonembo
Temporaneamente
dal 29 alle 10 UTC al 29 alle 15 UTC
Visibilità 10 km o più
Nubi sparse ad un'altezza di 3000 ft

TAF: LIBV 290800Z 2909/2918 36010KT CAVOK TEMPO 2910/2915 9999 SCT030

Osservazioni e previsioni meteorologiche di più di 4000 aeroporti (messaggi METAR e TAF).

Le stazioni disponibili sono rappresentate dai dischi gialli e rossi sulla carta.

Puntare il mouse per vedere il nome della stazione.

Clicca sopra per visualizzare le osservazioni e previsioni meteorologiche.

Per cambiare la mappa : fare clic sui pulsanti verdi con una croce nera per ingrandire, il pulsante verde con un trattino per diminuire, o sulla freccia verde per le mappe adiacenti.


METAR-TAF: